Dewitt Spain (M01)
Memphis, TN
Field Elevation: 224
Lat: 35°12.04N  Long: 90°03.24W
CTAF/Unicom Freq: 122.7000
   
     For Weather-by-Phone, call 901-354-9296
Weather Advisories
3/28/2015 04:35 Z
Altimeter 30.22" Hg
Wind 050° @ 4 KT
Gusts --
Visibility 10 SM
Ceiling CLR
Temperature 4° C (39° F)
Dewpoint -3° C (27° F)
Relative Humidity 60%
Density Altitude --
Condensation Altitude 3,800 feet
Wind Chill 2° C (36° F)
  Wind and Runways
Indicated Runway = 35
History
 
 
More Info
All DigiWx sites map
NOAA Forecast
 
Airport IQ 5010
(2M8) Charles W. Baker Airport
(3M3) Collegedale Muni
 
about DigiWx
 
FAA Disclaimer: The data displayed is for advisory purposes only and is not to be used for flight planning or operations. For official data, please call 901-354-9296 to hear the current automated AWOS voice message.
  METAR M01 280435Z AUTO 05004KT 10SM CLR 04/M03 A3022